sensor_id;sensor_type;location;lat;lon;timestamp;temperature;humidity
8872;DHT22;4472;52.092;9.820;2023-07-20T00:01:36;16.40;99.90
8872;DHT22;4472;52.092;9.820;2023-07-20T00:04:24;16.40;99.90
8872;DHT22;4472;52.092;9.820;2023-07-20T00:07:11;16.40;99.90
8872;DHT22;4472;52.092;9.820;2023-07-20T00:09:59;16.50;99.90
8872;DHT22;4472;52.092;9.820;2023-07-20T00:12:50;16.50;99.90
8872;DHT22;4472;52.092;9.820;2023-07-20T00:15:37;16.50;99.90
8872;DHT22;4472;52.092;9.820;2023-07-20T00:18:24;16.50;99.90
8872;DHT22;4472;52.092;9.820;2023-07-20T00:21:11;16.50;99.90
8872;DHT22;4472;52.092;9.820;2023-07-20T00:23:58;16.50;99.90
8872;DHT22;4472;52.092;9.820;2023-07-20T00:26:47;16.40;99.90
8872;DHT22;4472;52.092;9.820;2023-07-20T00:29:34;16.50;99.90
8872;DHT22;4472;52.092;9.820;2023-07-20T00:32:22;16.40;99.90
8872;DHT22;4472;52.092;9.820;2023-07-20T00:35:09;16.40;99.90
8872;DHT22;4472;52.092;9.820;2023-07-20T00:37:56;16.40;99.90
8872;DHT22;4472;52.092;9.820;2023-07-20T00:40:43;16.40;99.90
8872;DHT22;4472;52.092;9.820;2023-07-20T00:43:32;16.30;99.90
8872;DHT22;4472;52.092;9.820;2023-07-20T00:46:22;16.30;99.90
8872;DHT22;4472;52.092;9.820;2023-07-20T00:49:09;16.30;99.90
8872;DHT22;4472;52.092;9.820;2023-07-20T00:51:56;16.30;99.90
8872;DHT22;4472;52.092;9.820;2023-07-20T00:57:24;16.30;99.90
8872;DHT22;4472;52.092;9.820;2023-07-20T01:00:14;16.30;99.90
8872;DHT22;4472;52.092;9.820;2023-07-20T01:03:02;16.30;99.90
8872;DHT22;4472;52.092;9.820;2023-07-20T01:06:00;16.40;99.90
8872;DHT22;4472;52.092;9.820;2023-07-20T01:09:00;16.40;99.90
8872;DHT22;4472;52.092;9.820;2023-07-20T01:11:53;16.30;99.90
8872;DHT22;4472;52.092;9.820;2023-07-20T01:14:41;16.30;99.90
8872;DHT22;4472;52.092;9.820;2023-07-20T01:17:30;16.20;99.90
8872;DHT22;4472;52.092;9.820;2023-07-20T01:20:19;16.10;99.90
8872;DHT22;4472;52.092;9.820;2023-07-20T01:26:38;16.10;99.90
8872;DHT22;4472;52.092;9.820;2023-07-20T01:32:50;16.10;99.90
8872;DHT22;4472;52.092;9.820;2023-07-20T01:35:41;16.10;99.90
8872;DHT22;4472;52.092;9.820;2023-07-20T01:38:29;16.10;99.90
8872;DHT22;4472;52.092;9.820;2023-07-20T01:41:17;16.10;99.90
8872;DHT22;4472;52.092;9.820;2023-07-20T01:46:52;16.10;99.90
8872;DHT22;4472;52.092;9.820;2023-07-20T01:52:28;16.00;99.90
8872;DHT22;4472;52.092;9.820;2023-07-20T01:55:15;16.00;99.90
8872;DHT22;4472;52.092;9.820;2023-07-20T01:58:02;16.00;99.90
8872;DHT22;4472;52.092;9.820;2023-07-20T02:00:49;16.00;99.90
8872;DHT22;4472;52.092;9.820;2023-07-20T02:03:36;15.90;99.90
8872;DHT22;4472;52.092;9.820;2023-07-20T02:06:25;15.90;99.90
8872;DHT22;4472;52.092;9.820;2023-07-20T02:09:12;15.90;99.90
8872;DHT22;4472;52.092;9.820;2023-07-20T02:11:59;15.90;99.90
8872;DHT22;4472;52.092;9.820;2023-07-20T02:14:46;15.90;99.90
8872;DHT22;4472;52.092;9.820;2023-07-20T02:17:33;15.90;99.90
8872;DHT22;4472;52.092;9.820;2023-07-20T02:20:21;16.00;99.90
8872;DHT22;4472;52.092;9.820;2023-07-20T02:23:10;16.00;99.90
8872;DHT22;4472;52.092;9.820;2023-07-20T02:25:57;16.00;99.90
8872;DHT22;4472;52.092;9.820;2023-07-20T02:28:44;16.00;99.90
8872;DHT22;4472;52.092;9.820;2023-07-20T02:31:31;16.70;99.90
8872;DHT22;4472;52.092;9.820;2023-07-20T02:34:18;16.00;99.90
8872;DHT22;4472;52.092;9.820;2023-07-20T02:37:05;16.10;99.90
8872;DHT22;4472;52.092;9.820;2023-07-20T02:39:54;16.10;99.90
8872;DHT22;4472;52.092;9.820;2023-07-20T02:42:41;16.10;99.90
8872;DHT22;4472;52.092;9.820;2023-07-20T02:45:29;16.10;99.90
8872;DHT22;4472;52.092;9.820;2023-07-20T02:48:16;16.00;99.90
8872;DHT22;4472;52.092;9.820;2023-07-20T02:51:04;15.90;99.90
8872;DHT22;4472;52.092;9.820;2023-07-20T02:53:53;16.00;99.90
8872;DHT22;4472;52.092;9.820;2023-07-20T02:56:41;16.00;99.90
8872;DHT22;4472;52.092;9.820;2023-07-20T02:59:28;16.10;99.90
8872;DHT22;4472;52.092;9.820;2023-07-20T03:02:16;16.10;99.90
8872;DHT22;4472;52.092;9.820;2023-07-20T03:05:03;16.10;99.90
8872;DHT22;4472;52.092;9.820;2023-07-20T03:07:53;16.00;99.90
8872;DHT22;4472;52.092;9.820;2023-07-20T03:10:40;16.00;99.90
8872;DHT22;4472;52.092;9.820;2023-07-20T03:13:29;16.00;99.90
8872;DHT22;4472;52.092;9.820;2023-07-20T03:16:18;16.00;99.90
8872;DHT22;4472;52.092;9.820;2023-07-20T03:19:05;15.90;99.90
8872;DHT22;4472;52.092;9.820;2023-07-20T03:21:52;16.00;99.90
8872;DHT22;4472;52.092;9.820;2023-07-20T03:24:39;15.90;99.90
8872;DHT22;4472;52.092;9.820;2023-07-20T03:27:27;16.00;99.90
8872;DHT22;4472;52.092;9.820;2023-07-20T03:30:16;16.00;99.90
8872;DHT22;4472;52.092;9.820;2023-07-20T03:33:03;16.00;99.90
8872;DHT22;4472;52.092;9.820;2023-07-20T03:35:50;16.10;99.90
8872;DHT22;4472;52.092;9.820;2023-07-20T03:38:38;16.10;99.90
8872;DHT22;4472;52.092;9.820;2023-07-20T03:41:25;16.20;99.90
8872;DHT22;4472;52.092;9.820;2023-07-20T03:44:12;16.20;99.90
8872;DHT22;4472;52.092;9.820;2023-07-20T03:47:00;16.20;99.90
8872;DHT22;4472;52.092;9.820;2023-07-20T03:49:49;16.20;99.90
8872;DHT22;4472;52.092;9.820;2023-07-20T03:52:36;16.20;99.90
8872;DHT22;4472;52.092;9.820;2023-07-20T03:55:23;16.20;99.90
8872;DHT22;4472;52.092;9.820;2023-07-20T03:58:10;16.20;99.90
8872;DHT22;4472;52.092;9.820;2023-07-20T04:00:58;16.20;99.90
8872;DHT22;4472;52.092;9.820;2023-07-20T04:03:46;16.20;99.90
8872;DHT22;4472;52.092;9.820;2023-07-20T04:06:33;16.20;99.90
8872;DHT22;4472;52.092;9.820;2023-07-20T04:09:21;16.30;99.90
8872;DHT22;4472;52.092;9.820;2023-07-20T04:12:08;16.30;99.90
8872;DHT22;4472;52.092;9.820;2023-07-20T04:14:55;16.20;99.90
8872;DHT22;4472;52.092;9.820;2023-07-20T04:17:42;16.20;99.90
8872;DHT22;4472;52.092;9.820;2023-07-20T04:20:31;16.20;99.90
8872;DHT22;4472;52.092;9.820;2023-07-20T04:23:18;16.20;99.90
8872;DHT22;4472;52.092;9.820;2023-07-20T04:26:05;16.20;99.90
8872;DHT22;4472;52.092;9.820;2023-07-20T04:28:52;16.20;99.90
8872;DHT22;4472;52.092;9.820;2023-07-20T04:31:40;16.20;99.90
8872;DHT22;4472;52.092;9.820;2023-07-20T04:34:27;16.20;99.90
8872;DHT22;4472;52.092;9.820;2023-07-20T04:37:15;16.10;99.90
8872;DHT22;4472;52.092;9.820;2023-07-20T04:40:03;15.90;99.90
8872;DHT22;4472;52.092;9.820;2023-07-20T04:42:50;16.00;99.90
8872;DHT22;4472;52.092;9.820;2023-07-20T04:45:37;15.20;99.90
8872;DHT22;4472;52.092;9.820;2023-07-20T04:48:24;15.70;99.90
8872;DHT22;4472;52.092;9.820;2023-07-20T04:51:11;15.30;99.90
8872;DHT22;4472;52.092;9.820;2023-07-20T04:54:00;16.60;99.90
8872;DHT22;4472;52.092;9.820;2023-07-20T04:56:47;15.80;99.90
8872;DHT22;4472;52.092;9.820;2023-07-20T04:59:34;16.10;99.90
8872;DHT22;4472;52.092;9.820;2023-07-20T05:02:21;15.80;99.90
8872;DHT22;4472;52.092;9.820;2023-07-20T05:05:08;15.20;99.90
8872;DHT22;4472;52.092;9.820;2023-07-20T05:07:55;15.00;99.90
8872;DHT22;4472;52.092;9.820;2023-07-20T05:10:44;15.80;99.90
8872;DHT22;4472;52.092;9.820;2023-07-20T05:13:31;15.80;99.90
8872;DHT22;4472;52.092;9.820;2023-07-20T05:16:18;16.00;99.90
8872;DHT22;4472;52.092;9.820;2023-07-20T05:19:05;15.80;99.90
8872;DHT22;4472;52.092;9.820;2023-07-20T05:21:53;16.10;99.90
8872;DHT22;4472;52.092;9.820;2023-07-20T05:24:40;15.70;99.90
8872;DHT22;4472;52.092;9.820;2023-07-20T05:27:28;15.70;99.90
8872;DHT22;4472;52.092;9.820;2023-07-20T05:30:15;15.80;99.90
8872;DHT22;4472;52.092;9.820;2023-07-20T05:33:03;15.80;99.90
8872;DHT22;4472;52.092;9.820;2023-07-20T05:35:50;15.70;99.90
8872;DHT22;4472;52.092;9.820;2023-07-20T05:38:37;15.70;99.90
8872;DHT22;4472;52.092;9.820;2023-07-20T05:41:24;15.60;99.90
8872;DHT22;4472;52.092;9.820;2023-07-20T05:44:13;15.60;99.90
8872;DHT22;4472;52.092;9.820;2023-07-20T05:47:00;15.50;99.90
8872;DHT22;4472;52.092;9.820;2023-07-20T05:49:48;15.50;99.90
8872;DHT22;4472;52.092;9.820;2023-07-20T05:52:35;15.50;99.90
8872;DHT22;4472;52.092;9.820;2023-07-20T05:55:24;15.50;99.90
8872;DHT22;4472;52.092;9.820;2023-07-20T05:58:11;15.40;99.90
8872;DHT22;4472;52.092;9.820;2023-07-20T06:01:00;15.30;99.90
8872;DHT22;4472;52.092;9.820;2023-07-20T06:03:48;15.20;99.90
8872;DHT22;4472;52.092;9.820;2023-07-20T06:06:35;15.10;99.90
8872;DHT22;4472;52.092;9.820;2023-07-20T06:09:23;15.00;99.90
8872;DHT22;4472;52.092;9.820;2023-07-20T06:12:19;15.00;99.90
8872;DHT22;4472;52.092;9.820;2023-07-20T06:15:24;15.00;99.90
8872;DHT22;4472;52.092;9.820;2023-07-20T06:18:12;14.90;99.90
8872;DHT22;4472;52.092;9.820;2023-07-20T06:24:34;14.80;99.90
8872;DHT22;4472;52.092;9.820;2023-07-20T06:27:21;14.80;99.90
8872;DHT22;4472;52.092;9.820;2023-07-20T06:30:09;14.70;99.90
8872;DHT22;4472;52.092;9.820;2023-07-20T06:32:57;14.90;99.90
8872;DHT22;4472;52.092;9.820;2023-07-20T06:35:47;15.00;99.90
8872;DHT22;4472;52.092;9.820;2023-07-20T06:38:34;15.20;99.90
8872;DHT22;4472;52.092;9.820;2023-07-20T06:41:21;15.30;99.90
8872;DHT22;4472;52.092;9.820;2023-07-20T06:44:09;15.40;99.90
8872;DHT22;4472;52.092;9.820;2023-07-20T06:46:56;15.50;99.90
8872;DHT22;4472;52.092;9.820;2023-07-20T06:49:43;15.60;99.90
8872;DHT22;4472;52.092;9.820;2023-07-20T06:52:32;15.70;99.90
8872;DHT22;4472;52.092;9.820;2023-07-20T06:55:20;15.90;99.90
8872;DHT22;4472;52.092;9.820;2023-07-20T06:58:07;16.00;99.90
8872;DHT22;4472;52.092;9.820;2023-07-20T07:00:54;16.10;99.90
8872;DHT22;4472;52.092;9.820;2023-07-20T07:03:41;16.20;99.90
8872;DHT22;4472;52.092;9.820;2023-07-20T07:06:29;16.40;99.90
8872;DHT22;4472;52.092;9.820;2023-07-20T07:09:18;16.50;99.90
8872;DHT22;4472;52.092;9.820;2023-07-20T07:12:06;16.60;99.90
8872;DHT22;4472;52.092;9.820;2023-07-20T07:14:53;16.60;99.90
8872;DHT22;4472;52.092;9.820;2023-07-20T07:17:40;16.60;99.90
8872;DHT22;4472;52.092;9.820;2023-07-20T07:20:29;16.80;99.90
8872;DHT22;4472;52.092;9.820;2023-07-20T07:23:16;16.90;99.90
8872;DHT22;4472;52.092;9.820;2023-07-20T07:26:05;16.90;99.90
8872;DHT22;4472;52.092;9.820;2023-07-20T07:28:52;16.80;99.90
8872;DHT22;4472;52.092;9.820;2023-07-20T07:31:39;16.90;99.90
8872;DHT22;4472;52.092;9.820;2023-07-20T07:34:26;16.90;99.90
8872;DHT22;4472;52.092;9.820;2023-07-20T07:37:14;17.00;99.90
8872;DHT22;4472;52.092;9.820;2023-07-20T07:40:01;17.10;99.90
8872;DHT22;4472;52.092;9.820;2023-07-20T07:42:50;17.20;99.90
8872;DHT22;4472;52.092;9.820;2023-07-20T07:45:37;17.30;99.90
8872;DHT22;4472;52.092;9.820;2023-07-20T07:48:24;17.30;99.90
8872;DHT22;4472;52.092;9.820;2023-07-20T07:51:11;17.50;99.90
8872;DHT22;4472;52.092;9.820;2023-07-20T07:53:59;17.70;99.90
8872;DHT22;4472;52.092;9.820;2023-07-20T07:56:46;17.90;99.90
8872;DHT22;4472;52.092;9.820;2023-07-20T07:59:35;17.80;99.90
8872;DHT22;4472;52.092;9.820;2023-07-20T08:02:23;17.80;99.90
8872;DHT22;4472;52.092;9.820;2023-07-20T08:05:10;17.70;99.90
8872;DHT22;4472;52.092;9.820;2023-07-20T08:07:57;17.70;99.90
8872;DHT22;4472;52.092;9.820;2023-07-20T08:10:45;17.60;99.90
8872;DHT22;4472;52.092;9.820;2023-07-20T08:13:32;17.50;99.90
8872;DHT22;4472;52.092;9.820;2023-07-20T08:16:20;17.80;99.90
8872;DHT22;4472;52.092;9.820;2023-07-20T08:19:07;17.90;99.90
8872;DHT22;4472;52.092;9.820;2023-07-20T08:21:54;17.90;99.90
8872;DHT22;4472;52.092;9.820;2023-07-20T08:24:42;17.80;99.90
8872;DHT22;4472;52.092;9.820;2023-07-20T08:27:29;17.90;99.90
8872;DHT22;4472;52.092;9.820;2023-07-20T08:30:17;17.80;99.90
8872;DHT22;4472;52.092;9.820;2023-07-20T08:33:05;17.80;99.90
8872;DHT22;4472;52.092;9.820;2023-07-20T08:35:52;18.10;99.90
8872;DHT22;4472;52.092;9.820;2023-07-20T08:38:41;18.10;99.90
8872;DHT22;4472;52.092;9.820;2023-07-20T08:41:28;18.00;99.90
8872;DHT22;4472;52.092;9.820;2023-07-20T08:44:15;18.00;99.90
8872;DHT22;4472;52.092;9.820;2023-07-20T08:47:02;18.10;99.90
8872;DHT22;4472;52.092;9.820;2023-07-20T08:49:53;17.60;99.90
8872;DHT22;4472;52.092;9.820;2023-07-20T08:52:41;18.10;99.90
8872;DHT22;4472;52.092;9.820;2023-07-20T08:55:29;18.20;99.90
8872;DHT22;4472;52.092;9.820;2023-07-20T08:58:17;18.20;99.90
8872;DHT22;4472;52.092;9.820;2023-07-20T09:01:04;18.30;99.90
8872;DHT22;4472;52.092;9.820;2023-07-20T09:03:51;18.40;99.90
8872;DHT22;4472;52.092;9.820;2023-07-20T09:06:40;18.50;99.90
8872;DHT22;4472;52.092;9.820;2023-07-20T09:09:27;18.60;99.90
8872;DHT22;4472;52.092;9.820;2023-07-20T09:12:14;18.80;99.90
8872;DHT22;4472;52.092;9.820;2023-07-20T09:15:02;19.00;99.90
8872;DHT22;4472;52.092;9.820;2023-07-20T09:17:50;19.00;99.90
8872;DHT22;4472;52.092;9.820;2023-07-20T09:20:39;19.10;99.90
8872;DHT22;4472;52.092;9.820;2023-07-20T09:23:33;19.20;99.90
8872;DHT22;4472;52.092;9.820;2023-07-20T09:26:20;19.30;99.90
8872;DHT22;4472;52.092;9.820;2023-07-20T09:29:08;19.40;99.90
8872;DHT22;4472;52.092;9.820;2023-07-20T09:31:59;19.50;99.90
8872;DHT22;4472;52.092;9.820;2023-07-20T09:34:49;19.30;99.90
8872;DHT22;4472;52.092;9.820;2023-07-20T09:37:37;19.20;99.90
8872;DHT22;4472;52.092;9.820;2023-07-20T09:40:26;19.20;99.90
8872;DHT22;4472;52.092;9.820;2023-07-20T09:43:15;19.50;99.90
8872;DHT22;4472;52.092;9.820;2023-07-20T09:46:03;19.70;99.90
8872;DHT22;4472;52.092;9.820;2023-07-20T09:48:53;19.80;99.90
8872;DHT22;4472;52.092;9.820;2023-07-20T09:51:41;19.70;99.90
8872;DHT22;4472;52.092;9.820;2023-07-20T09:54:28;19.70;99.90
8872;DHT22;4472;52.092;9.820;2023-07-20T09:57:18;19.60;99.40
8872;DHT22;4472;52.092;9.820;2023-07-20T10:00:07;19.50;97.80
8872;DHT22;4472;52.092;9.820;2023-07-20T10:03:00;19.50;99.90
8872;DHT22;4472;52.092;9.820;2023-07-20T10:05:54;19.70;99.90
8872;DHT22;4472;52.092;9.820;2023-07-20T10:08:41;19.90;99.80
8872;DHT22;4472;52.092;9.820;2023-07-20T10:11:32;20.10;99.90
8872;DHT22;4472;52.092;9.820;2023-07-20T10:14:23;20.10;99.10
8872;DHT22;4472;52.092;9.820;2023-07-20T10:17:13;20.30;99.90
8872;DHT22;4472;52.092;9.820;2023-07-20T10:20:02;20.50;99.40
8872;DHT22;4472;52.092;9.820;2023-07-20T10:22:53;20.70;99.90
8872;DHT22;4472;52.092;9.820;2023-07-20T10:25:40;20.90;98.70
8872;DHT22;4472;52.092;9.820;2023-07-20T10:28:28;21.20;98.50
8872;DHT22;4472;52.092;9.820;2023-07-20T10:31:17;21.20;98.00
8872;DHT22;4472;52.092;9.820;2023-07-20T10:34:05;21.20;97.80
8872;DHT22;4472;52.092;9.820;2023-07-20T10:36:52;21.10;96.10
8872;DHT22;4472;52.092;9.820;2023-07-20T10:39:40;20.90;95.70
8872;DHT22;4472;52.092;9.820;2023-07-20T10:42:33;20.60;96.00
8872;DHT22;4472;52.092;9.820;2023-07-20T10:45:20;20.40;95.20
8872;DHT22;4472;52.092;9.820;2023-07-20T10:48:15;20.50;95.30
8872;DHT22;4472;52.092;9.820;2023-07-20T10:51:10;20.70;94.30
8872;DHT22;4472;52.092;9.820;2023-07-20T10:53:57;21.00;95.50
8872;DHT22;4472;52.092;9.820;2023-07-20T10:56:47;21.30;94.20
8872;DHT22;4472;52.092;9.820;2023-07-20T10:59:37;21.30;94.40
8872;DHT22;4472;52.092;9.820;2023-07-20T11:02:25;21.30;94.80
8872;DHT22;4472;52.092;9.820;2023-07-20T11:05:36;21.30;94.90
8872;DHT22;4472;52.092;9.820;2023-07-20T11:11:26;21.50;93.70
8872;DHT22;4472;52.092;9.820;2023-07-20T11:14:21;21.60;94.00
8872;DHT22;4472;52.092;9.820;2023-07-20T11:17:12;21.50;94.00
8872;DHT22;4472;52.092;9.820;2023-07-20T11:20:01;21.50;93.00
8872;DHT22;4472;52.092;9.820;2023-07-20T11:22:50;21.50;93.70
8872;DHT22;4472;52.092;9.820;2023-07-20T11:25:40;21.50;93.00
8872;DHT22;4472;52.092;9.820;2023-07-20T11:28:30;21.30;92.30
8872;DHT22;4472;52.092;9.820;2023-07-20T11:31:17;21.30;93.00
8872;DHT22;4472;52.092;9.820;2023-07-20T11:34:04;21.40;94.50
8872;DHT22;4472;52.092;9.820;2023-07-20T11:36:52;21.40;93.20
8872;DHT22;4472;52.092;9.820;2023-07-20T11:39:40;21.40;92.90
8872;DHT22;4472;52.092;9.820;2023-07-20T11:42:27;21.40;91.60
8872;DHT22;4472;52.092;9.820;2023-07-20T11:45:15;21.50;92.30
8872;DHT22;4472;52.092;9.820;2023-07-20T11:48:04;21.60;92.60
8872;DHT22;4472;52.092;9.820;2023-07-20T11:50:51;21.70;93.20
8872;DHT22;4472;52.092;9.820;2023-07-20T11:53:38;21.80;93.00
8872;DHT22;4472;52.092;9.820;2023-07-20T11:56:26;22.10;92.80
8872;DHT22;4472;52.092;9.820;2023-07-20T11:59:14;22.30;92.00
8872;DHT22;4472;52.092;9.820;2023-07-20T12:02:01;22.40;90.80
8872;DHT22;4472;52.092;9.820;2023-07-20T12:04:49;22.50;91.60
8872;DHT22;4472;52.092;9.820;2023-07-20T12:07:36;22.50;90.50
8872;DHT22;4472;52.092;9.820;2023-07-20T12:10:27;22.40;90.90
8872;DHT22;4472;52.092;9.820;2023-07-20T12:13:15;22.40;90.90
8872;DHT22;4472;52.092;9.820;2023-07-20T12:16:08;22.30;90.80
8872;DHT22;4472;52.092;9.820;2023-07-20T12:19:02;22.50;89.90
8872;DHT22;4472;52.092;9.820;2023-07-20T12:21:50;22.30;87.50
8872;DHT22;4472;52.092;9.820;2023-07-20T12:24:37;22.30;90.30
8872;DHT22;4472;52.092;9.820;2023-07-20T12:27:27;22.40;91.50
8872;DHT22;4472;52.092;9.820;2023-07-20T12:30:16;22.60;91.20
8872;DHT22;4472;52.092;9.820;2023-07-20T12:33:04;22.90;88.30
8872;DHT22;4472;52.092;9.820;2023-07-20T12:35:51;22.90;87.80
8872;DHT22;4472;52.092;9.820;2023-07-20T12:42:24;22.50;89.50
8872;DHT22;4472;52.092;9.820;2023-07-20T12:45:11;22.20;87.20
8872;DHT22;4472;52.092;9.820;2023-07-20T12:48:00;22.10;90.00
8872;DHT22;4472;52.092;9.820;2023-07-20T12:50:48;22.10;90.00
8872;DHT22;4472;52.092;9.820;2023-07-20T12:56:22;22.40;86.60
8872;DHT22;4472;52.092;9.820;2023-07-20T12:59:09;22.50;85.60
8872;DHT22;4472;52.092;9.820;2023-07-20T13:01:56;22.40;85.70
8872;DHT22;4472;52.092;9.820;2023-07-20T13:04:45;22.20;86.70
8872;DHT22;4472;52.092;9.820;2023-07-20T13:07:34;22.00;86.50
8872;DHT22;4472;52.092;9.820;2023-07-20T13:10:22;22.10;89.30
8872;DHT22;4472;52.092;9.820;2023-07-20T13:13:09;22.20;88.10
8872;DHT22;4472;52.092;9.820;2023-07-20T13:15:56;22.30;87.20
8872;DHT22;4472;52.092;9.820;2023-07-20T13:18:44;22.20;87.00
8872;DHT22;4472;52.092;9.820;2023-07-20T13:21:32;22.10;86.50
8872;DHT22;4472;52.092;9.820;2023-07-20T13:24:19;22.00;86.10
8872;DHT22;4472;52.092;9.820;2023-07-20T13:27:07;21.80;86.60
8872;DHT22;4472;52.092;9.820;2023-07-20T13:29:54;21.80;89.40
8872;DHT22;4472;52.092;9.820;2023-07-20T13:32:41;21.80;90.60
8872;DHT22;4472;52.092;9.820;2023-07-20T13:35:28;21.90;90.40
8872;DHT22;4472;52.092;9.820;2023-07-20T13:38:17;21.80;87.80
8872;DHT22;4472;52.092;9.820;2023-07-20T13:41:04;21.80;87.40
8872;DHT22;4472;52.092;9.820;2023-07-20T13:46:38;21.70;88.90
8872;DHT22;4472;52.092;9.820;2023-07-20T13:49:26;21.70;91.80
8872;DHT22;4472;52.092;9.820;2023-07-20T13:52:13;21.80;90.60
8872;DHT22;4472;52.092;9.820;2023-07-20T13:55:02;21.80;89.80
8872;DHT22;4472;52.092;9.820;2023-07-20T13:57:50;21.70;88.60
8872;DHT22;4472;52.092;9.820;2023-07-20T14:00:37;21.40;90.80
8872;DHT22;4472;52.092;9.820;2023-07-20T14:09:54;20.80;91.80
8872;DHT22;4472;52.092;9.820;2023-07-20T14:15:30;20.50;93.40
8872;DHT22;4472;52.092;9.820;2023-07-20T14:18:17;20.40;94.60
8872;DHT22;4472;52.092;9.820;2023-07-20T14:21:04;20.40;94.20
8872;DHT22;4472;52.092;9.820;2023-07-20T14:23:52;20.40;93.90
8872;DHT22;4472;52.092;9.820;2023-07-20T14:26:39;20.40;94.60
8872;DHT22;4472;52.092;9.820;2023-07-20T14:29:28;20.50;92.00
8872;DHT22;4472;52.092;9.820;2023-07-20T14:32:17;20.60;93.50
8872;DHT22;4472;52.092;9.820;2023-07-20T14:35:05;20.70;92.60
8872;DHT22;4472;52.092;9.820;2023-07-20T14:37:52;20.80;91.00
8872;DHT22;4472;52.092;9.820;2023-07-20T14:40:39;20.90;97.30
8872;DHT22;4472;52.092;9.820;2023-07-20T14:43:27;20.90;92.10
8872;DHT22;4472;52.092;9.820;2023-07-20T14:46:15;21.00;91.00
8872;DHT22;4472;52.092;9.820;2023-07-20T14:49:02;21.10;92.30
8872;DHT22;4472;52.092;9.820;2023-07-20T14:51:49;21.10;91.80
8872;DHT22;4472;52.092;9.820;2023-07-20T14:54:36;21.20;92.10
8872;DHT22;4472;52.092;9.820;2023-07-20T14:57:24;21.10;91.10
8872;DHT22;4472;52.092;9.820;2023-07-20T15:00:12;21.20;91.20
8872;DHT22;4472;52.092;9.820;2023-07-20T15:03:00;21.40;91.90
8872;DHT22;4472;52.092;9.820;2023-07-20T15:05:47;21.70;91.20
8872;DHT22;4472;52.092;9.820;2023-07-20T15:08:36;21.80;90.40
8872;DHT22;4472;52.092;9.820;2023-07-20T15:11:24;21.80;89.20
8872;DHT22;4472;52.092;9.820;2023-07-20T15:14:11;21.70;89.00
8872;DHT22;4472;52.092;9.820;2023-07-20T15:16:58;21.50;90.30
8872;DHT22;4472;52.092;9.820;2023-07-20T15:19:46;21.50;90.80
8872;DHT22;4472;52.092;9.820;2023-07-20T15:22:34;21.50;90.40
8872;DHT22;4472;52.092;9.820;2023-07-20T15:25:22;21.40;90.50
8872;DHT22;4472;52.092;9.820;2023-07-20T15:28:09;21.40;91.60
8872;DHT22;4472;52.092;9.820;2023-07-20T15:30:59;21.60;92.60
8872;DHT22;4472;52.092;9.820;2023-07-20T15:33:47;21.70;91.00
8872;DHT22;4472;52.092;9.820;2023-07-20T15:36:36;21.80;91.20
8872;DHT22;4472;52.092;9.820;2023-07-20T15:39:23;21.90;99.90
8872;DHT22;4472;52.092;9.820;2023-07-20T15:42:10;22.00;92.90
8872;DHT22;4472;52.092;9.820;2023-07-20T15:44:58;22.00;91.60
8872;DHT22;4472;52.092;9.820;2023-07-20T15:47:46;22.50;91.30
8872;DHT22;4472;52.092;9.820;2023-07-20T15:50:33;22.10;91.40
8872;DHT22;4472;52.092;9.820;2023-07-20T15:53:21;22.10;91.60
8872;DHT22;4472;52.092;9.820;2023-07-20T15:56:09;22.10;90.70
8872;DHT22;4472;52.092;9.820;2023-07-20T15:58:56;22.20;91.10
8872;DHT22;4472;52.092;9.820;2023-07-20T16:01:43;22.30;91.80
8872;DHT22;4472;52.092;9.820;2023-07-20T16:04:30;22.20;88.30
8872;DHT22;4472;52.092;9.820;2023-07-20T16:07:17;22.20;88.10
8872;DHT22;4472;52.092;9.820;2023-07-20T16:10:08;22.20;89.50
8872;DHT22;4472;52.092;9.820;2023-07-20T16:12:55;22.30;89.70
8872;DHT22;4472;52.092;9.820;2023-07-20T16:15:43;22.30;89.90
8872;DHT22;4472;52.092;9.820;2023-07-20T16:18:30;22.40;88.60
8872;DHT22;4472;52.092;9.820;2023-07-20T16:21:17;22.30;89.30
8872;DHT22;4472;52.092;9.820;2023-07-20T16:24:05;22.20;84.40
8872;DHT22;4472;52.092;9.820;2023-07-20T16:26:53;22.10;85.00
8872;DHT22;4472;52.092;9.820;2023-07-20T16:29:41;22.40;90.10
8872;DHT22;4472;52.092;9.820;2023-07-20T16:35:15;22.10;85.40
8872;DHT22;4472;52.092;9.820;2023-07-20T16:38:04;22.00;83.70
8872;DHT22;4472;52.092;9.820;2023-07-20T16:40:55;21.80;86.20
8872;DHT22;4472;52.092;9.820;2023-07-20T16:43:44;21.60;85.00
8872;DHT22;4472;52.092;9.820;2023-07-20T16:46:32;21.00;87.20
8872;DHT22;4472;52.092;9.820;2023-07-20T16:49:19;20.60;89.60
8872;DHT22;4472;52.092;9.820;2023-07-20T16:52:07;20.10;90.40
8872;DHT22;4472;52.092;9.820;2023-07-20T16:54:54;20.20;91.40
8872;DHT22;4472;52.092;9.820;2023-07-20T16:57:42;20.30;91.50
8872;DHT22;4472;52.092;9.820;2023-07-20T17:00:30;20.30;91.80
8872;DHT22;4472;52.092;9.820;2023-07-20T17:03:17;20.30;91.70
8872;DHT22;4472;52.092;9.820;2023-07-20T17:06:05;20.30;91.50
8872;DHT22;4472;52.092;9.820;2023-07-20T17:08:53;20.30;91.30
8872;DHT22;4472;52.092;9.820;2023-07-20T17:11:41;20.20;90.70
8872;DHT22;4472;52.092;9.820;2023-07-20T17:14:28;20.20;91.10
8872;DHT22;4472;52.092;9.820;2023-07-20T17:17:17;20.20;91.30
8872;DHT22;4472;52.092;9.820;2023-07-20T17:20:05;20.10;91.70
8872;DHT22;4472;52.092;9.820;2023-07-20T17:22:56;20.10;92.20
8872;DHT22;4472;52.092;9.820;2023-07-20T17:25:44;20.10;91.50
8872;DHT22;4472;52.092;9.820;2023-07-20T17:28:32;20.00;91.60
8872;DHT22;4472;52.092;9.820;2023-07-20T17:31:19;20.00;92.30
8872;DHT22;4472;52.092;9.820;2023-07-20T17:34:09;20.00;92.60
8872;DHT22;4472;52.092;9.820;2023-07-20T17:36:58;20.00;92.30
8872;DHT22;4472;52.092;9.820;2023-07-20T17:39:45;20.00;92.00
8872;DHT22;4472;52.092;9.820;2023-07-20T17:42:32;19.90;92.20
8872;DHT22;4472;52.092;9.820;2023-07-20T17:45:20;19.80;92.00
8872;DHT22;4472;52.092;9.820;2023-07-20T17:48:08;19.80;92.20
8872;DHT22;4472;52.092;9.820;2023-07-20T17:50:57;19.80;92.10
8872;DHT22;4472;52.092;9.820;2023-07-20T17:53:44;19.70;91.70
8872;DHT22;4472;52.092;9.820;2023-07-20T17:56:32;19.70;92.10
8872;DHT22;4472;52.092;9.820;2023-07-20T17:59:20;19.70;92.40
8872;DHT22;4472;52.092;9.820;2023-07-20T18:02:08;19.70;92.30
8872;DHT22;4472;52.092;9.820;2023-07-20T18:04:56;19.60;92.40
8872;DHT22;4472;52.092;9.820;2023-07-20T18:07:44;19.60;92.70
8872;DHT22;4472;52.092;9.820;2023-07-20T18:10:32;19.50;92.70
8872;DHT22;4472;52.092;9.820;2023-07-20T18:13:19;19.50;93.20
8872;DHT22;4472;52.092;9.820;2023-07-20T18:16:06;19.50;93.50
8872;DHT22;4472;52.092;9.820;2023-07-20T18:21:40;19.40;94.00
8872;DHT22;4472;52.092;9.820;2023-07-20T18:24:29;19.40;94.30
8872;DHT22;4472;52.092;9.820;2023-07-20T18:27:16;19.30;94.30
8872;DHT22;4472;52.092;9.820;2023-07-20T18:30:08;19.20;94.20
8872;DHT22;4472;52.092;9.820;2023-07-20T18:32:56;19.20;94.40
8872;DHT22;4472;52.092;9.820;2023-07-20T18:35:43;19.10;95.10
8872;DHT22;4472;52.092;9.820;2023-07-20T18:38:30;19.10;94.80
8872;DHT22;4472;52.092;9.820;2023-07-20T18:41:19;19.10;95.60
8872;DHT22;4472;52.092;9.820;2023-07-20T18:44:08;19.00;95.60
8872;DHT22;4472;52.092;9.820;2023-07-20T18:46:55;18.90;95.40
8872;DHT22;4472;52.092;9.820;2023-07-20T18:49:43;18.90;95.60
8872;DHT22;4472;52.092;9.820;2023-07-20T18:52:30;18.80;95.70
8872;DHT22;4472;52.092;9.820;2023-07-20T18:55:17;18.80;95.90
8872;DHT22;4472;52.092;9.820;2023-07-20T18:58:06;18.60;96.10
8872;DHT22;4472;52.092;9.820;2023-07-20T19:00:58;18.50;97.30
8872;DHT22;4472;52.092;9.820;2023-07-20T19:03:45;18.40;98.00